Time,TemperatureF,DewpointF,PressureIn,WindDirection,WindDirectionDegrees,WindSpeedMPH,WindSpeedGustMPH,Humidity,HourlyPrecipIn,Conditions,Clouds,dailyrainin,SolarRadiationWatts/m^2,SoftwareType,DateUTC
2013-02-04 00:14:00,42.4,41.9,30.28,SE,144,0.0,0.0,98,0.00,CLR,,0.00,0.0,WeatherDisplay:10.37,2013-02-04 08:14:00,
2013-02-04 00:29:00,42.4,41.9,30.29,SE,144,0.0,1.0,98,0.00,CLR,,0.00,0.0,WeatherDisplay:10.37,2013-02-04 08:29:00,
2013-02-04 00:44:00,42.4,41.9,30.28,SE,144,0.0,0.0,98,0.00,CLR,,0.00,0.0,WeatherDisplay:10.37,2013-02-04 08:44:00,
2013-02-04 00:59:00,42.3,41.8,30.28,SE,144,0.0,0.0,98,0.00,CLR,,0.00,0.0,WeatherDisplay:10.37,2013-02-04 08:59:00,
2013-02-04 01:14:00,42.3,41.8,30.28,SE,144,0.0,1.0,98,0.00,CLR,,0.00,0.0,WeatherDisplay:10.37,2013-02-04 09:14:00,
2013-02-04 01:29:00,42.3,41.8,30.28,SE,144,0.0,0.0,98,0.00,CLR,,0.00,0.0,WeatherDisplay:10.37,2013-02-04 09:29:00,
2013-02-04 01:44:00,42.2,41.7,30.28,SE,144,0.0,0.0,98,0.00,CLR,,0.00,0.0,WeatherDisplay:10.37,2013-02-04 09:44:00,
2013-02-04 01:59:00,42.3,41.8,30.30,SE,144,1.0,2.0,98,0.00,CLR,,0.00,0.0,WeatherDisplay:10.37,2013-02-04 09:59:00,
2013-02-04 02:14:00,42.3,41.8,30.29,SE,144,0.0,0.0,98,0.00,CLR,,0.00,0.0,WeatherDisplay:10.37,2013-02-04 10:14:00,
2013-02-04 02:29:00,42.3,41.8,30.28,SE,144,0.0,1.0,98,0.00,CLR,,0.00,0.0,WeatherDisplay:10.37,2013-02-04 10:29:00,
2013-02-04 02:44:00,42.2,41.7,30.27,SE,144,1.0,2.0,98,0.00,CLR,,0.00,0.0,WeatherDisplay:10.37,2013-02-04 10:44:00,
2013-02-04 02:59:00,42.0,41.2,30.28,ESE,115,0.0,3.0,97,0.00,CLR,,0.00,0.0,WeatherDisplay:10.37,2013-02-04 10:59:00,
2013-02-04 03:14:00,42.0,41.2,30.28,ESE,115,1.0,2.0,97,0.00,CLR,,0.00,0.0,WeatherDisplay:10.37,2013-02-04 11:14:00,
2013-02-04 03:29:00,42.2,41.6,30.27,ESE,115,0.0,2.0,98,0.00,CLR,,0.00,0.0,WeatherDisplay:10.37,2013-02-04 11:29:00,
2013-02-04 03:44:00,42.2,41.7,30.28,ESE,115,0.0,1.0,98,0.00,CLR,,0.00,0.0,WeatherDisplay:10.37,2013-02-04 11:44:00,
2013-02-04 03:59:00,42.2,41.7,30.26,ESE,115,1.0,2.0,98,0.00,CLR,,0.00,0.0,WeatherDisplay:10.37,2013-02-04 11:59:00,
2013-02-04 04:14:00,42.0,41.3,30.25,ESE,114,1.0,3.0,97,0.00,CLR,,0.00,0.0,WeatherDisplay:10.37,2013-02-04 12:14:00,
2013-02-04 04:29:00,42.1,41.3,30.26,ESE,114,0.0,1.0,97,0.00,CLR,,0.00,0.0,WeatherDisplay:10.37,2013-02-04 12:29:00,
2013-02-04 04:44:00,42.1,41.6,30.25,ESE,114,0.0,2.0,98,0.00,CLR,,0.00,0.0,WeatherDisplay:10.37,2013-02-04 12:44:00,
2013-02-04 04:59:00,42.1,41.6,30.24,ESE,114,0.0,0.0,98,0.00,CLR,,0.00,0.0,WeatherDisplay:10.37,2013-02-04 12:59:00,
2013-02-04 05:14:00,42.2,41.7,30.25,ESE,114,1.0,2.0,98,0.00,CLR,,0.00,0.0,WeatherDisplay:10.37,2013-02-04 13:14:00,
2013-02-04 05:29:00,42.2,41.4,30.24,ESE,114,0.0,2.0,97,0.00,CLR,,0.00,0.0,WeatherDisplay:10.37,2013-02-04 13:29:00,
2013-02-04 05:44:00,42.3,41.7,30.24,ESE,114,1.0,2.0,98,0.00,CLR,,0.00,0.0,WeatherDisplay:10.37,2013-02-04 13:44:00,
2013-02-04 05:59:00,42.4,41.9,30.25,ESE,114,0.0,2.0,98,0.00,CLR,,0.00,0.0,WeatherDisplay:10.37,2013-02-04 13:59:00,
2013-02-04 06:14:00,42.4,41.9,30.23,ESE,114,0.0,0.0,98,0.00,CLR,,0.00,0.0,WeatherDisplay:10.37,2013-02-04 14:14:00,
2013-02-04 06:29:00,42.4,41.9,30.22,ESE,114,0.0,0.0,98,0.00,CLR,,0.00,0.0,WeatherDisplay:10.37,2013-02-04 14:29:00,
2013-02-04 06:44:00,42.4,41.9,30.23,ESE,114,0.0,0.0,98,0.00,CLR,,0.00,0.0,WeatherDisplay:10.37,2013-02-04 14:44:00,
2013-02-04 06:59:00,42.4,41.9,30.22,ESE,114,0.0,1.0,98,0.00,OVC,,0.00,0.0,WeatherDisplay:10.37,2013-02-04 14:59:00,
2013-02-04 07:14:00,42.4,41.9,30.23,ESE,114,0.0,0.0,98,0.00,OVC,,0.00,0.0,WeatherDisplay:10.37,2013-02-04 15:14:00,
2013-02-04 07:29:00,42.4,41.9,30.23,ESE,114,0.0,1.0,98,0.00,OVC,,0.00,0.0,WeatherDisplay:10.37,2013-02-04 15:29:00,
2013-02-04 07:44:00,42.5,42.0,30.23,ESE,114,0.0,0.0,98,0.00,BKN,,0.00,1.7,WeatherDisplay:10.37,2013-02-04 15:44:00,
2013-02-04 07:59:00,42.5,42.0,30.22,ESE,114,0.0,1.0,98,0.00,OVC,,0.00,4.2,WeatherDisplay:10.37,2013-02-04 15:59:00,
2013-02-04 08:14:00,42.7,42.2,30.22,ESE,114,0.0,0.0,98,0.00,OVC,,0.00,5.5,WeatherDisplay:10.37,2013-02-04 16:14:00,
2013-02-04 08:29:00,42.9,42.4,30.22,ESE,114,0.0,0.0,98,0.00,OVC,,0.00,8.0,WeatherDisplay:10.37,2013-02-04 16:29:00,
2013-02-04 08:44:00,43.1,42.6,30.22,ESE,114,0.0,1.0,98,0.00,OVC,,0.00,11.4,WeatherDisplay:10.37,2013-02-04 16:44:00,
2013-02-04 08:59:00,43.4,42.9,30.22,ESE,114,0.0,2.0,98,0.00,OVC,,0.00,16.4,WeatherDisplay:10.37,2013-02-04 16:59:00,
2013-02-04 09:14:00,43.7,42.9,30.22,ESE,114,0.0,1.0,97,0.00,OVC,,0.00,22.4,WeatherDisplay:10.37,2013-02-04 17:14:00,
2013-02-04 09:29:00,44.0,43.2,30.21,ESE,114,0.0,0.0,97,0.00,OVC,,0.00,25.6,WeatherDisplay:10.37,2013-02-04 17:29:00,
2013-02-04 09:44:00,44.4,43.3,30.21,ESE,114,0.0,1.0,96,0.00,OVC,,0.00,45.0,WeatherDisplay:10.37,2013-02-04 17:44:00,
2013-02-04 09:59:00,44.9,43.6,30.21,ESE,114,0.0,2.0,95,0.00,OVC,,0.00,46.2,WeatherDisplay:10.37,2013-02-04 17:59:00,
2013-02-04 10:14:00,45.2,43.6,30.21,ESE,114,0.0,3.0,94,0.00,OVC,,0.00,39.5,WeatherDisplay:10.37,2013-02-04 18:14:00,
2013-02-04 10:29:00,45.6,44.0,30.21,SW,225,1.0,4.0,94,0.00,OVC,,0.00,45.5,WeatherDisplay:10.37,2013-02-04 18:29:00,
2013-02-04 10:44:00,45.9,44.0,30.20,SW,233,2.0,4.0,93,0.00,OVC,,0.00,56.4,WeatherDisplay:10.37,2013-02-04 18:44:00,
2013-02-04 10:59:00,46.1,43.9,30.19,SSW,211,0.0,2.0,92,0.00,BKN,,0.00,83.8,WeatherDisplay:10.37,2013-02-04 18:59:00,
2013-02-04 11:14:00,46.8,44.3,30.19,SSW,197,2.0,4.0,91,0.00,BKN,,0.00,85.5,WeatherDisplay:10.37,2013-02-04 19:14:00,
2013-02-04 11:29:00,47.4,44.6,30.18,South,186,0.0,4.0,90,0.01,RA,,0.01,103.7,WeatherDisplay:10.37,2013-02-04 19:29:00,
2013-02-04 11:44:00,47.9,44.2,30.17,South,172,0.0,4.0,87,0.00,BKN,,0.01,90.5,WeatherDisplay:10.37,2013-02-04 19:44:00,
2013-02-04 11:59:00,48.4,44.4,30.17,WSW,239,2.0,3.0,86,0.00,OVC,,0.01,86.8,WeatherDisplay:10.37,2013-02-04 19:59:00,
2013-02-04 12:14:00,48.7,44.1,30.16,South,179,1.0,4.0,84,0.00,BKN,,0.01,112.9,WeatherDisplay:10.37,2013-02-04 20:14:00,
2013-02-04 12:29:00,49.1,43.5,30.15,South,186,2.0,5.0,81,0.00,BKN,,0.01,102.7,WeatherDisplay:10.37,2013-02-04 20:29:00,
2013-02-04 12:44:00,49.2,43.6,30.14,WSW,245,2.0,4.0,81,0.00,BKN,,0.01,97.7,WeatherDisplay:10.37,2013-02-04 20:44:00,
2013-02-04 12:59:00,49.4,43.9,30.13,SSW,208,2.0,4.0,81,0.00,BKN,,0.01,109.1,WeatherDisplay:10.37,2013-02-04 20:59:00,
2013-02-04 13:14:00,49.6,44.1,30.12,SW,234,2.0,5.0,81,0.00,OVC,,0.01,78.3,WeatherDisplay:10.37,2013-02-04 21:14:00,
2013-02-04 13:29:00,49.9,44.0,30.11,SW,217,2.0,4.0,80,0.00,OVC,,0.01,65.6,WeatherDisplay:10.37,2013-02-04 21:29:00,
2013-02-04 13:44:00,50.1,43.5,30.11,South,185,2.0,6.0,78,0.00,OVC,,0.01,61.9,WeatherDisplay:10.37,2013-02-04 21:44:00,
2013-02-04 13:59:00,49.9,43.3,30.10,SSE,168,0.0,5.0,78,0.00,OVC,,0.01,74.6,WeatherDisplay:10.37,2013-02-04 21:59:00,
2013-02-04 14:14:00,50.2,43.3,30.09,ESE,107,1.0,5.0,77,0.00,OVC,,0.01,63.1,WeatherDisplay:10.37,2013-02-04 22:14:00,
2013-02-04 14:29:00,50.4,43.8,30.08,SE,135,1.0,4.0,78,0.00,OVC,,0.01,54.7,WeatherDisplay:10.37,2013-02-04 22:29:00,
2013-02-04 14:44:00,50.4,43.4,30.08,SE,145,2.0,5.0,77,0.00,OVC,,0.01,44.2,WeatherDisplay:10.37,2013-02-04 22:44:00,
2013-02-04 14:59:00,50.3,44.0,30.07,SE,141,3.0,4.0,79,0.00,OVC,,0.01,43.0,WeatherDisplay:10.37,2013-02-04 22:59:00,
2013-02-04 15:14:00,50.0,43.4,30.07,ESE,113,1.0,4.0,78,0.00,OVC,,0.01,40.8,WeatherDisplay:10.37,2013-02-04 23:14:00,
2013-02-04 15:29:00,50.0,42.7,30.07,South,174,3.0,4.0,76,0.00,OVC,,0.01,30.3,WeatherDisplay:10.37,2013-02-04 23:29:00,
2013-02-04 15:44:00,49.9,42.3,30.07,South,189,0.0,4.0,75,0.00,OVC,,0.01,21.9,WeatherDisplay:10.37,2013-02-04 23:44:00,
2013-02-04 15:59:00,49.8,42.2,30.08,WSW,241,1.0,4.0,75,0.00,OVC,,0.01,13.9,WeatherDisplay:10.37,2013-02-04 23:59:00,
2013-02-04 16:14:00,49.7,42.4,30.07,South,188,0.0,3.0,76,0.00,OVC,,0.01,8.5,WeatherDisplay:10.37,2013-02-05 00:14:00,
2013-02-04 16:29:00,49.6,43.4,30.07,South,188,0.0,1.0,79,0.00,OVC,,0.01,7.2,WeatherDisplay:10.37,2013-02-05 00:29:00,
2013-02-04 16:44:00,48.7,43.5,30.06,South,188,0.0,1.0,82,0.00,OVC,,0.01,4.2,WeatherDisplay:10.37,2013-02-05 00:44:00,
2013-02-04 16:59:00,48.5,42.6,30.06,East,98,0.0,2.0,80,0.00,OVC,,0.01,2.5,WeatherDisplay:10.37,2013-02-05 00:59:00,
2013-02-04 17:14:00,47.7,43.1,30.05,East,98,1.0,2.0,84,0.00,OVC,,0.01,0.5,WeatherDisplay:10.37,2013-02-05 01:14:00,
2013-02-04 17:29:00,47.0,43.1,30.05,East,98,0.0,0.0,86,0.00,OVC,,0.01,0.5,WeatherDisplay:10.37,2013-02-05 01:29:00,
2013-02-04 17:44:00,46.5,42.8,30.05,East,98,0.0,2.0,87,0.00,OVC,,0.01,0.5,WeatherDisplay:10.37,2013-02-05 01:44:00,
2013-02-04 17:59:00,45.9,42.8,30.03,East,98,0.0,2.0,89,0.00,CLR,,0.01,0.0,WeatherDisplay:10.37,2013-02-05 01:59:00,
2013-02-04 18:14:00,45.3,42.5,30.02,East,98,0.0,2.0,90,0.00,CLR,,0.01,0.0,WeatherDisplay:10.37,2013-02-05 02:14:00,
2013-02-04 18:29:00,44.7,41.9,30.02,East,98,0.0,1.0,90,0.00,CLR,,0.01,0.0,WeatherDisplay:10.37,2013-02-05 02:29:00,
2013-02-04 18:44:00,44.2,41.5,30.01,East,98,0.0,3.0,90,0.00,CLR,,0.01,0.0,WeatherDisplay:10.37,2013-02-05 02:44:00,
2013-02-04 18:59:00,44.3,41.8,30.00,East,98,0.0,2.0,91,0.00,CLR,,0.01,0.0,WeatherDisplay:10.37,2013-02-05 02:59:00,
2013-02-04 19:14:00,44.3,42.1,29.98,East,98,1.0,2.0,92,0.00,CLR,,0.01,0.0,WeatherDisplay:10.37,2013-02-05 03:14:00,
2013-02-04 19:29:00,45.0,42.5,29.98,WSW,251,0.0,3.0,91,0.00,CLR,,0.01,0.0,WeatherDisplay:10.37,2013-02-05 03:29:00,
2013-02-04 19:44:00,45.2,42.4,29.99,West,260,1.0,2.0,90,0.00,CLR,,0.01,0.0,WeatherDisplay:10.37,2013-02-05 03:44:00,
2013-02-04 19:59:00,45.2,42.5,29.99,West,260,1.0,2.0,90,0.00,CLR,,0.01,0.0,WeatherDisplay:10.37,2013-02-05 03:59:00,
2013-02-04 20:14:00,45.5,42.7,29.98,West,260,0.0,2.0,90,0.00,CLR,,0.01,0.0,WeatherDisplay:10.37,2013-02-05 04:14:00,
2013-02-04 20:29:00,45.2,42.5,29.98,West,260,1.0,2.0,90,0.00,CLR,,0.01,0.0,WeatherDisplay:10.37,2013-02-05 04:29:00,
2013-02-04 20:44:00,44.7,42.2,29.99,West,260,0.0,2.0,91,0.00,CLR,,0.01,0.0,WeatherDisplay:10.37,2013-02-05 04:44:00,
2013-02-04 20:59:00,44.2,42.3,29.99,West,260,0.0,2.0,93,0.00,CLR,,0.01,0.0,WeatherDisplay:10.37,2013-02-05 04:59:00,
2013-02-04 21:14:00,43.7,41.8,29.99,West,260,1.0,2.0,93,0.00,CLR,,0.01,0.0,WeatherDisplay:10.37,2013-02-05 05:14:00,
2013-02-04 21:29:00,43.3,41.7,29.99,West,260,1.0,2.0,94,0.00,CLR,,0.01,0.0,WeatherDisplay:10.37,2013-02-05 05:29:00,
2013-02-04 21:44:00,42.9,41.3,29.99,West,260,0.0,1.0,94,0.00,CLR,,0.01,0.0,WeatherDisplay:10.37,2013-02-05 05:44:00,
2013-02-04 21:59:00,42.6,41.3,29.99,West,260,1.0,2.0,95,0.00,CLR,,0.01,0.0,WeatherDisplay:10.37,2013-02-05 05:59:00,
2013-02-04 22:14:00,42.3,41.0,29.98,ESE,116,1.0,3.0,95,0.00,CLR,,0.01,0.0,WeatherDisplay:10.37,2013-02-05 06:14:00,
2013-02-04 22:29:00,42.1,40.8,29.99,NE,52,0.0,2.0,95,0.00,CLR,,0.01,0.0,WeatherDisplay:10.37,2013-02-05 06:29:00,
2013-02-04 22:44:00,41.8,40.5,29.99,NE,38,0.0,1.0,95,0.00,CLR,,0.01,0.0,WeatherDisplay:10.37,2013-02-05 06:44:00,
2013-02-04 22:59:00,41.8,40.7,29.99,North,359,0.0,3.0,96,0.00,CLR,,0.01,0.0,WeatherDisplay:10.37,2013-02-05 06:59:00,
2013-02-04 23:14:00,42.0,41.2,29.99,North,355,0.0,1.0,97,0.00,CLR,,0.01,0.0,WeatherDisplay:10.37,2013-02-05 07:14:00,
2013-02-04 23:29:00,43.1,42.0,29.99,North,355,1.0,1.0,96,0.00,CLR,,0.01,0.0,WeatherDisplay:10.37,2013-02-05 07:29:00,
2013-02-04 23:44:00,43.2,42.1,29.99,West,277,0.0,3.0,96,0.00,CLR,,0.01,0.0,WeatherDisplay:10.37,2013-02-05 07:44:00,
2013-02-04 23:59:00,43.4,42.1,29.99,West,275,0.0,3.0,95,0.00,RA,,0.00,0.0,WeatherDisplay:10.37,2013-02-05 07:59:00,